Time;durP1;ratioP1;P1;durP2;ratioP2;P2;SDS_P1;SDS_P2;PMS_P1;PMS_P2;Temp;Humidity;BMP_temperature;BMP_pressure;BME280_temperature;BME280_humidity;BME280_pressure;Samples;Min_cycle;Max_cycle;Signal;HPM_P1;HPM_P2
2022/01/31 00:09:14;;;;;;;11;20;;;;;;;2.9;68.2;98280;;;;
2022/01/31 00:20:09;;;;;;;16.4;28.8;;;;;;;2.8;68.8;98280;;;;
2022/01/31 00:30:09;;;;;;;16.4;28.8;;;;;;;2.5;71;98270;;;;
2022/01/31 00:41:10;;;;;;;16.4;28.8;;;;;;;2.5;69;98260;;;;
2022/01/31 00:51:09;;;;;;;12.7;21.7;;;;;;;2.6;66.8;98260;;;;
2022/01/31 01:02:09;;;;;;;12.7;21.7;;;;;;;2.7;65.7;98250;;;;
2022/01/31 01:12:09;;;;;;;12.7;21.7;;;;;;;2.6;65.2;98230;;;;
2022/01/31 01:23:09;;;;;;;12.1;23.8;;;;;;;2.6;64.8;98230;;;;
2022/01/31 01:33:17;;;;;;;12.1;23.8;;;;;;;2.6;64.6;98270;;;;
2022/01/31 01:43:09;;;;;;;9.9;17.4;;;;;;;2.7;64;98270;;;;
2022/01/31 01:53:09;;;;;;;9.9;17.4;;;;;;;2.6;63.7;98270;;;;
2022/01/31 02:03:09;;;;;;;9.9;17.4;;;;;;;2.6;64.2;98250;;;;
2022/01/31 02:14:09;;;;;;;8.1;17.3;;;;;;;2.6;63.4;98220;;;;
2022/01/31 02:25:10;;;;;;;8.1;17.3;;;;;;;2.5;63.3;98190;;;;
2022/01/31 02:35:11;;;;;;;8.1;17.3;;;;;;;2.4;63.2;98180;;;;
2022/01/31 02:46:09;;;;;;;6.6;15.4;;;;;;;2.3;62.9;98160;;;;
2022/01/31 02:56:10;;;;;;;6.6;15.4;;;;;;;2.2;63.4;98160;;;;
2022/01/31 03:07:09;;;;;;;6.6;15.4;;;;;;;2.2;63;98170;;;;
2022/01/31 03:17:10;;;;;;;7.8;16.9;;;;;;;2.1;62.9;98170;;;;
2022/01/31 03:28:09;;;;;;;7.8;16.9;;;;;;;1.9;63.5;98150;;;;
2022/01/31 03:38:09;;;;;;;7.8;16.9;;;;;;;1.9;63.3;98140;;;;
2022/01/31 03:49:09;;;;;;;7.8;16.1;;;;;;;1.9;63.7;98130;;;;
2022/01/31 04:00:09;;;;;;;7.8;16.1;;;;;;;1.8;63.4;98120;;;;
2022/01/31 04:10:10;;;;;;;7.8;16.1;;;;;;;1.9;63.6;98110;;;;
2022/01/31 04:21:09;;;;;;;7.5;20;;;;;;;1.9;63.6;98110;;;;
2022/01/31 04:31:14;;;;;;;7.5;20;;;;;;;1.9;63.3;98100;;;;
2022/01/31 04:42:09;;;;;;;8.2;18.7;;;;;;;1.9;63.2;98100;;;;
2022/01/31 04:53:09;;;;;;;8.2;18.7;;;;;;;2;62.9;98080;;;;
2022/01/31 05:03:13;;;;;;;8.2;18.7;;;;;;;1.8;63.1;98080;;;;
2022/01/31 05:14:09;;;;;;;6.8;13.4;;;;;;;1.7;63.5;98060;;;;
2022/01/31 05:24:10;;;;;;;6.8;13.4;;;;;;;1.6;64.1;98050;;;;
2022/01/31 05:35:09;;;;;;;6.8;13.4;;;;;;;1.4;64.6;98040;;;;
2022/01/31 05:46:09;;;;;;;8.2;15.8;;;;;;;1.3;64.9;98000;;;;
2022/01/31 05:57:10;;;;;;;8.2;15.8;;;;;;;1.2;65.3;97980;;;;
2022/01/31 06:07:09;;;;;;;8.2;15.8;;;;;;;1.1;65.6;97970;;;;
2022/01/31 06:18:09;;;;;;;8.6;15.9;;;;;;;1.2;65.6;97960;;;;
2022/01/31 06:29:09;;;;;;;8.6;15.9;;;;;;;1.2;65.5;97950;;;;
2022/01/31 06:40:09;;;;;;;8.6;15.9;;;;;;;1.3;65.6;97930;;;;
2022/01/31 06:51:09;;;;;;;11.9;23.1;;;;;;;1.5;64.5;97930;;;;
2022/01/31 07:01:09;;;;;;;11.9;23.1;;;;;;;1.8;64.1;97920;;;;
2022/01/31 07:11:15;;;;;;;11.9;23.1;;;;;;;1.9;63.1;97910;;;;
2022/01/31 07:22:12;;;;;;;12;23;;;;;;;2.1;62.6;97900;;;;
2022/01/31 07:33:09;;;;;;;12;23;;;;;;;2.3;62.4;97890;;;;
2022/01/31 07:43:09;;;;;;;10.8;19.2;;;;;;;2.4;61.6;97870;;;;
2022/01/31 07:54:10;;;;;;;10.8;19.2;;;;;;;2.5;61.5;97870;;;;
2022/01/31 08:04:10;;;;;;;10.8;19.2;;;;;;;2.4;61.7;97860;;;;
2022/01/31 08:15:14;;;;;;;11.1;19.2;;;;;;;2.6;61.8;97840;;;;
2022/01/31 08:26:11;;;;;;;11.1;19.2;;;;;;;2.4;62.1;97830;;;;
2022/01/31 08:36:09;;;;;;;11.1;19.2;;;;;;;2.5;62.8;97820;;;;
2022/01/31 08:46:10;;;;;;;12.4;24.2;;;;;;;2.4;62.4;97820;;;;
2022/01/31 08:57:10;;;;;;;12.4;24.2;;;;;;;2.5;62.1;97790;;;;
2022/01/31 09:08:09;;;;;;;12.4;24.2;;;;;;;2.8;62.3;97790;;;;
2022/01/31 09:18:09;;;;;;;13.9;23.7;;;;;;;2.9;62.1;97780;;;;
2022/01/31 09:28:10;;;;;;;13.9;23.7;;;;;;;3.1;62.1;97760;;;;
2022/01/31 09:38:12;;;;;;;13.9;23.7;;;;;;;3.2;61.5;97740;;;;
2022/01/31 09:48:43;;;;;;;13.7;20.5;;;;;;;3.3;61.8;97710;;;;
2022/01/31 09:59:09;;;;;;;13.7;20.5;;;;;;;3.3;61.6;97690;;;;
2022/01/31 10:09:10;;;;;;;13.7;20.5;;;;;;;3.4;60.9;97680;;;;
2022/01/31 10:19:10;;;;;;;10.6;19.5;;;;;;;3.6;60.8;97650;;;;
2022/01/31 10:29:10;;;;;;;10.6;19.5;;;;;;;3.6;60.7;97640;;;;
2022/01/31 11:01:09;;;;;;;13.4;23.3;;;;;;;3.4;61.8;97620;;;;
2022/01/31 11:11:10;;;;;;;13;23.3;;;;;;;3.4;62.2;97610;;;;
2022/01/31 11:22:10;;;;;;;13;23.3;;;;;;;3.6;62.1;97600;;;;
2022/01/31 11:32:10;;;;;;;13;23.3;;;;;;;3.4;61.3;97590;;;;
2022/01/31 11:42:10;;;;;;;14.4;20.7;;;;;;;3.4;61.1;97580;;;;
2022/01/31 11:53:10;;;;;;;14.4;20.7;;;;;;;3.3;61.5;97570;;;;
2022/01/31 12:03:10;;;;;;;14.4;20.7;;;;;;;3.3;60.8;97560;;;;
2022/01/31 12:13:16;;;;;;;14.7;31.7;;;;;;;3.4;60.5;97550;;;;
2022/01/31 12:23:09;;;;;;;14.7;31.7;;;;;;;3.4;60.6;97550;;;;
2022/01/31 12:34:09;;;;;;;14.7;31.7;;;;;;;3.6;60.3;97530;;;;
2022/01/31 12:44:10;;;;;;;12.1;20.4;;;;;;;3.5;59.4;97510;;;;
2022/01/31 12:54:10;;;;;;;12.1;20.4;;;;;;;3.7;59.1;97500;;;;
2022/01/31 13:05:10;;;;;;;12.1;20.4;;;;;;;3.6;58.9;97500;;;;
2022/01/31 13:16:10;;;;;;;11;18;;;;;;;3.5;58.9;97500;;;;
2022/01/31 13:26:10;;;;;;;11;18;;;;;;;3.4;59.1;97500;;;;
2022/01/31 13:37:10;;;;;;;11;18;;;;;;;3.5;59.3;97480;;;;
2022/01/31 13:47:10;;;;;;;11.6;22;;;;;;;3.4;59.6;97480;;;;
2022/01/31 13:58:10;;;;;;;11.6;22;;;;;;;3.5;58.7;97460;;;;
2022/01/31 14:08:10;;;;;;;11.6;22;;;;;;;3.4;58.7;97460;;;;
2022/01/31 14:18:10;;;;;;;11.4;20.5;;;;;;;3.6;58.8;97450;;;;
2022/01/31 14:29:10;;;;;;;11.4;20.5;;;;;;;3.5;59.2;97450;;;;
2022/01/31 14:40:24;;;;;;;11.4;20.5;;;;;;;3.4;58.3;97430;;;;
2022/01/31 14:51:10;;;;;;;12.4;27.9;;;;;;;3.2;58.7;97430;;;;
2022/01/31 15:01:10;;;;;;;12.4;27.9;;;;;;;3.2;59.8;97430;;;;
2022/01/31 15:12:10;;;;;;;16.8;31.3;;;;;;;3.1;60.1;97430;;;;
2022/01/31 15:22:11;;;;;;;16.8;31.3;;;;;;;3;60.5;97450;;;;
2022/01/31 15:32:10;;;;;;;16.8;31.3;;;;;;;2.9;61;97460;;;;
2022/01/31 15:42:10;;;;;;;25;47;;;;;;;2.8;61.6;97460;;;;
2022/01/31 15:53:10;;;;;;;25;47;;;;;;;2.7;61.9;97480;;;;
2022/01/31 16:03:11;;;;;;;25;47;;;;;;;2.7;62.4;97460;;;;
2022/01/31 16:14:11;;;;;;;21.7;38.4;;;;;;;2.6;62.7;97460;;;;
2022/01/31 16:24:10;;;;;;;21.7;38.4;;;;;;;2.5;63;97470;;;;
2022/01/31 16:34:10;;;;;;;21.7;38.4;;;;;;;2.5;63.2;97480;;;;
2022/01/31 16:44:10;;;;;;;28.5;41;;;;;;;2.4;63.5;97490;;;;
2022/01/31 16:54:10;;;;;;;28.5;41;;;;;;;2.3;64.2;97490;;;;
2022/01/31 17:05:10;;;;;;;28.5;41;;;;;;;2.3;64.4;97480;;;;
2022/01/31 17:16:10;;;;;;;26;37.7;;;;;;;2.3;64.9;97480;;;;
2022/01/31 17:26:10;;;;;;;26;37.7;;;;;;;2.2;65.8;97490;;;;
2022/01/31 17:36:10;;;;;;;26;37.7;;;;;;;2.1;66.1;97490;;;;
2022/01/31 17:47:10;;;;;;;26.9;37.9;;;;;;;1.9;66.8;97480;;;;
2022/01/31 17:58:10;;;;;;;26.9;37.9;;;;;;;1.7;66.1;97500;;;;
2022/01/31 18:08:10;;;;;;;26.9;37.9;;;;;;;1.3;66.5;97500;;;;
2022/01/31 18:19:10;;;;;;;27.4;40.2;;;;;;;1;67.5;97510;;;;
2022/01/31 18:29:10;;;;;;;27.4;40.2;;;;;;;0.7;68.2;97520;;;;
2022/01/31 18:40:10;;;;;;;32;46.8;;;;;;;0.7;71.2;97530;;;;
2022/01/31 18:50:10;;;;;;;32;46.8;;;;;;;0.7;71.5;97530;;;;
2022/01/31 19:01:11;;;;;;;32;46.8;;;;;;;0.9;71.7;97530;;;;
2022/01/31 19:11:15;;;;;;;42.1;54.3;;;;;;;0.9;71.3;97530;;;;
2022/01/31 19:22:10;;;;;;;42.1;54.3;;;;;;;0.9;70.8;97550;;;;
2022/01/31 19:32:10;;;;;;;42.1;54.3;;;;;;;0.9;70.6;97550;;;;
2022/01/31 19:43:17;;;;;;;31.7;46.3;;;;;;;0.9;70.8;97550;;;;
2022/01/31 19:54:10;;;;;;;31.7;46.3;;;;;;;0.8;70.5;97560;;;;
2022/01/31 20:04:10;;;;;;;31.7;46.3;;;;;;;0.8;70.6;97570;;;;
2022/01/31 20:15:10;;;;;;;31.9;44.1;;;;;;;0.8;70.9;97580;;;;
2022/01/31 20:25:12;;;;;;;31.9;44.1;;;;;;;0.9;71;97590;;;;
2022/01/31 20:35:10;;;;;;;31.9;44.1;;;;;;;0.9;71.2;97600;;;;
2022/01/31 20:46:10;;;;;;;34;44.8;;;;;;;1;71.3;97610;;;;
2022/01/31 20:57:10;;;;;;;34;44.8;;;;;;;1.1;71.6;97620;;;;
2022/01/31 21:08:12;;;;;;;34;44.8;;;;;;;1;72;97610;;;;
2022/01/31 21:19:10;;;;;;;38.2;50.3;;;;;;;1.1;72.1;97630;;;;
2022/01/31 21:29:10;;;;;;;38.2;50.3;;;;;;;1.1;72.2;97630;;;;
2022/01/31 21:40:10;;;;;;;43;53;;;;;;;1.1;72.7;97650;;;;
2022/01/31 21:50:10;;;;;;;43;53;;;;;;;1.1;73;97650;;;;
2022/01/31 22:00:10;;;;;;;43;53;;;;;;;1.1;73.3;97660;;;;
2022/01/31 22:11:40;;;;;;;47.9;67.5;;;;;;;1.1;73.9;97670;;;;
2022/01/31 22:21:11;;;;;;;47.9;67.5;;;;;;;1;74.7;97680;;;;
2022/01/31 22:32:10;;;;;;;47.9;67.5;;;;;;;1;74.5;97710;;;;
2022/01/31 22:42:12;;;;;;;48.7;67.2;;;;;;;1.1;74.8;97710;;;;
2022/01/31 22:53:10;;;;;;;48.7;67.2;;;;;;;1;75.5;97720;;;;
2022/01/31 23:03:10;;;;;;;48.7;67.2;;;;;;;0.9;75.9;97730;;;;
2022/01/31 23:14:15;;;;;;;47.2;63.7;;;;;;;0.8;76.9;97740;;;;
2022/01/31 23:44:43;;;;;;;53.5;76.8;;;;;;;0.6;77.7;97760;;;;
2022/01/31 23:55:24;;;;;;;53.5;76.8;;;;;;;0.6;78.1;97760;;;;
